Time;durP1;ratioP1;P1;durP2;ratioP2;P2;SDS_P1;SDS_P2;PMS_P1;PMS_P2;Temp;Humidity;BMP_temperature;BMP_pressure;BME280_temperature;BME280_humidity;BME280_pressure;Samples;Min_cycle;Max_cycle;Signal;HPM_P1;HPM_P2
2023/12/08 00:02:07;;;;;;;11.02;5.03;;;3.10;99.90;;;;;;6182281;23;20351;-77
2023/12/08 00:04:33;;;;;;;13.45;5.22;;;3.00;99.90;;;;;;6181520;23;20017;-77
2023/12/08 00:06:59;;;;;;;15.55;5.88;;;3.00;99.90;;;;;;6182596;23;20025;-76
2023/12/08 00:09:24;;;;;;;16.25;7.07;;;3.00;99.90;;;;;;6178523;23;20009;-78
2023/12/08 00:11:50;;;;;;;18.58;6.82;;;3.00;99.90;;;;;;6180881;23;20137;-77
2023/12/08 00:14:15;;;;;;;15.75;6.70;;;3.00;99.90;;;;;;6178884;23;20007;-77
2023/12/08 00:16:41;;;;;;;14.15;5.53;;;3.00;99.90;;;;;;6179476;23;20025;-77
2023/12/08 00:19:10;;;;;;;16.38;7.30;;;3.00;99.90;;;;;;6179742;23;20013;-76
2023/12/08 00:21:35;;;;;;;15.10;6.25;;;2.90;99.90;;;;;;6178747;23;20497;-79
2023/12/08 00:24:01;;;;;;;14.90;6.43;;;2.80;99.90;;;;;;6179433;23;20107;-76
2023/12/08 00:26:27;;;;;;;19.08;7.32;;;2.90;99.90;;;;;;6179843;23;20059;-76
2023/12/08 00:28:52;;;;;;;15.65;6.15;;;2.80;99.90;;;;;;6180363;23;20012;-77
2023/12/08 00:31:18;;;;;;;15.00;5.78;;;2.80;99.90;;;;;;6177157;23;20106;-78
2023/12/08 00:33:44;;;;;;;13.38;6.03;;;2.80;99.90;;;;;;6178679;23;20016;-76
2023/12/08 00:36:16;;;;;;;15.40;6.55;;;2.70;99.90;;;;;;6178569;23;20009;-76
2023/12/08 00:38:43;;;;;;;16.33;7.47;;;2.70;99.90;;;;;;6179555;23;20013;-76
2023/12/08 00:41:09;;;;;;;15.68;6.80;;;2.70;99.90;;;;;;6181224;23;20662;-77
2023/12/08 00:43:35;;;;;;;15.30;7.60;;;2.70;99.90;;;;;;6180223;23;20486;-77
2023/12/08 00:46:01;;;;;;;15.30;7.35;;;2.70;99.90;;;;;;6181287;23;20013;-76
2023/12/08 00:48:26;;;;;;;16.30;7.18;;;2.70;99.90;;;;;;6177497;23;20017;-77
2023/12/08 00:50:52;;;;;;;14.27;6.95;;;2.70;99.90;;;;;;6178243;23;20009;-78
2023/12/08 00:53:18;;;;;;;21.55;7.57;;;2.70;99.90;;;;;;6177609;23;20451;-76
2023/12/08 00:55:44;;;;;;;12.93;6.63;;;2.70;99.90;;;;;;6180226;23;20028;-77
2023/12/08 00:58:09;;;;;;;15.35;6.80;;;2.70;99.90;;;;;;6180912;23;20335;-77
2023/12/08 01:00:36;;;;;;;14.93;7.07;;;2.70;99.90;;;;;;6179892;23;20016;-78
2023/12/08 01:03:02;;;;;;;21.13;8.70;;;2.70;99.90;;;;;;6180895;23;20005;-79
2023/12/08 01:05:27;;;;;;;17.63;8.40;;;2.70;99.90;;;;;;6177474;23;20321;-77
2023/12/08 01:07:53;;;;;;;14.93;7.28;;;2.80;99.90;;;;;;6180392;23;20080;-77
2023/12/08 01:10:20;;;;;;;16.58;7.55;;;2.80;99.90;;;;;;6177953;23;20024;-78
2023/12/08 01:12:46;;;;;;;16.80;7.28;;;2.80;99.90;;;;;;6179103;23;20063;-77
2023/12/08 01:15:11;;;;;;;16.42;7.70;;;2.80;99.90;;;;;;6178178;23;20017;-78
2023/12/08 01:17:37;;;;;;;18.38;7.25;;;2.90;99.90;;;;;;6178762;23;20009;-77
2023/12/08 01:20:04;;;;;;;14.43;6.90;;;2.90;99.90;;;;;;6181065;23;20516;-75
2023/12/08 01:22:30;;;;;;;23.13;7.47;;;2.90;99.90;;;;;;6178151;23;20013;-77
2023/12/08 01:24:56;;;;;;;16.00;7.15;;;2.90;99.90;;;;;;6180728;23;20040;-79
2023/12/08 01:27:22;;;;;;;21.08;7.30;;;3.00;99.90;;;;;;6177139;23;20423;-76
2023/12/08 01:29:47;;;;;;;19.20;7.65;;;3.00;99.90;;;;;;6179372;23;20009;-77
2023/12/08 01:32:13;;;;;;;18.25;7.88;;;3.00;99.90;;;;;;6178528;23;20095;-77
2023/12/08 01:34:38;;;;;;;20.30;8.15;;;3.00;99.90;;;;;;6181005;23;20552;-76
2023/12/08 01:37:04;;;;;;;16.08;7.45;;;3.00;99.90;;;;;;6178734;23;20009;-77
2023/12/08 01:39:30;;;;;;;14.10;6.82;;;3.00;99.90;;;;;;6179098;23;20029;-77
2023/12/08 01:41:55;;;;;;;19.25;8.43;;;3.00;99.90;;;;;;6179820;23;20457;-77
2023/12/08 01:44:21;;;;;;;18.35;7.05;;;3.00;99.90;;;;;;6178113;23;20008;-77
2023/12/08 01:46:46;;;;;;;17.98;8.07;;;3.10;99.90;;;;;;6179496;23;20436;-77
2023/12/08 01:49:14;;;;;;;19.58;7.60;;;3.10;99.90;;;;;;6180498;23;20016;-79
2023/12/08 01:51:40;;;;;;;15.77;7.25;;;3.10;99.90;;;;;;6178963;23;20087;-76
2023/12/08 01:54:06;;;;;;;18.30;8.48;;;3.10;99.90;;;;;;6178790;23;20037;-77
2023/12/08 01:56:32;;;;;;;16.45;6.85;;;3.10;99.90;;;;;;6178242;23;20020;-77
2023/12/08 01:58:58;;;;;;;17.58;7.40;;;3.10;99.90;;;;;;6181039;23;20005;-78
2023/12/08 02:01:24;;;;;;;16.90;8.15;;;3.10;99.90;;;;;;6178621;23;20339;-78
2023/12/08 02:03:51;;;;;;;15.77;7.55;;;3.10;99.90;;;;;;6177743;23;20069;-76
2023/12/08 02:06:20;;;;;;;14.57;7.55;;;3.10;99.90;;;;;;6179265;23;20080;-76
2023/12/08 02:08:49;;;;;;;18.80;7.55;;;3.20;99.90;;;;;;6178333;23;20406;-77
2023/12/08 02:11:16;;;;;;;16.43;6.87;;;3.10;99.90;;;;;;6179322;23;20128;-77
2023/12/08 02:13:42;;;;;;;18.33;7.65;;;3.10;99.90;;;;;;6180938;23;20056;-77
2023/12/08 02:16:16;;;;;;;16.38;7.45;;;3.00;99.90;;;;;;6180854;23;20009;-77
2023/12/08 02:18:44;;;;;;;19.98;7.22;;;3.00;99.90;;;;;;6202821;23;20299;-77
2023/12/08 02:21:11;;;;;;;16.83;7.13;;;3.00;99.90;;;;;;6179205;23;20009;-77
2023/12/08 02:23:36;;;;;;;18.40;7.32;;;3.10;99.90;;;;;;6179367;23;20024;-78
2023/12/08 02:26:04;;;;;;;18.52;8.27;;;3.00;99.90;;;;;;6179702;23;20013;-76
2023/12/08 02:28:30;;;;;;;17.85;7.70;;;2.90;99.90;;;;;;6176133;23;20016;-75
2023/12/08 02:30:59;;;;;;;22.73;7.75;;;2.90;99.90;;;;;;6178740;23;20083;-77
2023/12/08 02:33:30;;;;;;;19.63;7.72;;;2.90;99.90;;;;;;6179772;23;20088;-77
2023/12/08 02:35:58;;;;;;;24.58;7.38;;;2.80;99.90;;;;;;6177758;23;20020;-76
2023/12/08 02:38:25;;;;;;;17.63;7.65;;;2.90;99.90;;;;;;6176643;23;20345;-76
2023/12/08 02:40:50;;;;;;;18.20;7.47;;;2.80;99.90;;;;;;6178031;23;20075;-77
2023/12/08 02:43:16;;;;;;;21.08;7.97;;;2.80;99.90;;;;;;6178626;23;20032;-78
2023/12/08 02:45:42;;;;;;;20.33;8.23;;;2.90;99.90;;;;;;6179984;23;20008;-77
2023/12/08 02:48:07;;;;;;;16.73;7.88;;;2.80;99.90;;;;;;6179266;23;20024;-77
2023/12/08 02:50:33;;;;;;;16.92;8.23;;;2.80;99.90;;;;;;6176827;23;20028;-76
2023/12/08 02:52:58;;;;;;;19.48;8.60;;;2.80;99.90;;;;;;6177757;23;20020;-77
2023/12/08 02:55:24;;;;;;;26.50;9.23;;;2.80;99.90;;;;;;6178899;23;20389;-78
2023/12/08 02:57:50;;;;;;;18.63;9.00;;;2.80;99.90;;;;;;6178371;23;20009;-77
2023/12/08 03:00:16;;;;;;;21.85;8.32;;;2.70;99.90;;;;;;6178058;23;20633;-76
2023/12/08 03:02:42;;;;;;;19.90;8.38;;;2.70;99.90;;;;;;6177695;23;20132;-77
2023/12/08 03:05:08;;;;;;;19.38;8.57;;;2.70;99.90;;;;;;6180640;23;20033;-77
2023/12/08 03:07:33;;;;;;;15.00;6.75;;;2.70;99.90;;;;;;6177038;23;20425;-78
2023/12/08 03:09:59;;;;;;;16.52;8.00;;;2.70;99.90;;;;;;6178019;23;20021;-79
2023/12/08 03:12:24;;;;;;;19.50;8.45;;;2.70;99.90;;;;;;6176834;23;20028;-77
2023/12/08 03:14:50;;;;;;;18.85;8.63;;;2.70;99.90;;;;;;6178553;23;20067;-77
2023/12/08 03:17:16;;;;;;;19.83;8.77;;;2.70;99.90;;;;;;6178739;23;20363;-78
2023/12/08 03:19:41;;;;;;;18.00;8.20;;;2.80;99.90;;;;;;6177662;23;20012;-78
2023/12/08 03:22:07;;;;;;;20.42;8.40;;;2.70;99.90;;;;;;6180104;23;20092;-78
2023/12/08 03:24:32;;;;;;;19.33;9.07;;;2.80;99.90;;;;;;6179046;23;20005;-77
2023/12/08 03:26:58;;;;;;;20.35;8.90;;;2.80;99.90;;;;;;6177940;23;20020;-76
2023/12/08 03:29:23;;;;;;;19.48;7.80;;;2.70;99.90;;;;;;6178644;23;20005;-77
2023/12/08 03:31:49;;;;;;;16.08;8.57;;;2.80;99.90;;;;;;6178483;23;20020;-77
2023/12/08 03:34:14;;;;;;;17.20;7.93;;;2.70;99.90;;;;;;6178970;23;20099;-78
2023/12/08 03:36:40;;;;;;;22.70;9.05;;;2.70;99.90;;;;;;6178165;23;20398;-77
2023/12/08 03:39:05;;;;;;;17.00;8.35;;;2.70;99.90;;;;;;6178835;23;20355;-78
2023/12/08 03:41:31;;;;;;;19.77;8.50;;;2.80;99.90;;;;;;6176611;23;20087;-76
2023/12/08 03:43:57;;;;;;;23.38;8.23;;;2.70;99.90;;;;;;6178559;23;20063;-76
2023/12/08 03:46:23;;;;;;;22.10;8.40;;;2.80;99.90;;;;;;6177542;23;20035;-76
2023/12/08 03:48:49;;;;;;;15.85;6.82;;;2.80;99.90;;;;;;6177863;23;20472;-76
2023/12/08 03:51:15;;;;;;;19.35;8.35;;;2.70;99.90;;;;;;6178674;23;20021;-76
2023/12/08 03:53:40;;;;;;;20.77;8.93;;;2.80;99.90;;;;;;6179339;23;20017;-78
2023/12/08 03:56:07;;;;;;;17.48;7.30;;;2.80;99.90;;;;;;6179236;23;20081;-77
2023/12/08 03:58:33;;;;;;;21.92;9.57;;;2.70;99.90;;;;;;6177600;23;20013;-77
2023/12/08 04:00:58;;;;;;;16.35;7.20;;;2.70;99.90;;;;;;6178771;23;20027;-77
2023/12/08 04:03:24;;;;;;;17.20;8.15;;;2.70;99.90;;;;;;6179582;23;20029;-76
2023/12/08 04:05:50;;;;;;;20.80;8.60;;;2.70;99.90;;;;;;6179223;23;20009;-76
2023/12/08 04:08:15;;;;;;;19.73;8.25;;;2.70;99.90;;;;;;6177232;23;20751;-77
2023/12/08 04:10:41;;;;;;;19.63;7.47;;;2.70;99.90;;;;;;6181163;23;20009;-76
2023/12/08 04:13:07;;;;;;;21.92;9.30;;;2.70;99.90;;;;;;6180725;23;20092;-78
2023/12/08 04:15:32;;;;;;;19.52;7.57;;;2.70;99.90;;;;;;6177861;23;20100;-77
2023/12/08 04:17:58;;;;;;;18.42;8.35;;;2.80;99.90;;;;;;6179228;23;20061;-76
2023/12/08 04:20:24;;;;;;;15.32;7.35;;;2.80;99.90;;;;;;6177634;23;20011;-77
2023/12/08 04:22:49;;;;;;;16.95;8.05;;;2.80;99.90;;;;;;6179171;23;20017;-77
2023/12/08 04:25:15;;;;;;;18.35;7.63;;;2.80;99.90;;;;;;6177428;23;20024;-77
2023/12/08 04:27:40;;;;;;;17.92;8.35;;;2.80;99.90;;;;;;6180364;23;20658;-76
2023/12/08 04:30:06;;;;;;;16.92;8.05;;;2.80;99.90;;;;;;6179224;23;20619;-76
2023/12/08 04:32:33;;;;;;;19.90;7.57;;;2.80;99.90;;;;;;6179098;23;20021;-76
2023/12/08 04:34:58;;;;;;;18.90;8.07;;;2.80;99.90;;;;;;6178686;23;20079;-77
2023/12/08 04:37:24;;;;;;;21.83;8.50;;;2.90;99.90;;;;;;6177729;23;20016;-76
2023/12/08 04:39:50;;;;;;;18.85;8.45;;;2.80;99.90;;;;;;6179167;23;20091;-77
2023/12/08 04:42:16;;;;;;;19.25;7.53;;;2.80;99.90;;;;;;6180345;23;20009;-77
2023/12/08 04:44:42;;;;;;;20.25;8.15;;;2.90;99.90;;;;;;6181037;23;20047;-76
2023/12/08 04:47:09;;;;;;;17.75;7.38;;;2.90;99.90;;;;;;6179039;23;20005;-76
2023/12/08 04:49:34;;;;;;;23.45;8.50;;;2.90;99.90;;;;;;6179026;23;20024;-76
2023/12/08 04:52:02;;;;;;;17.83;7.65;;;2.90;99.90;;;;;;6180358;23;20048;-76
2023/12/08 04:54:27;;;;;;;19.45;8.70;;;2.90;99.90;;;;;;6177425;23;20104;-77
2023/12/08 04:56:54;;;;;;;18.42;8.45;;;2.90;99.90;;;;;;6180549;23;20451;-76
2023/12/08 04:59:19;;;;;;;20.55;8.02;;;2.90;99.90;;;;;;6179552;23;20088;-77
2023/12/08 05:01:50;;;;;;;20.25;9.65;;;2.90;99.90;;;;;;6180790;23;20009;-76
2023/12/08 05:04:17;;;;;;;19.42;8.32;;;3.00;99.90;;;;;;6177497;23;20005;-77
2023/12/08 05:06:43;;;;;;;15.40;7.55;;;3.00;99.90;;;;;;6180819;23;20005;-77
2023/12/08 05:09:10;;;;;;;19.77;8.05;;;3.00;99.90;;;;;;6178365;23;20005;-76
2023/12/08 05:11:36;;;;;;;18.65;7.70;;;3.00;99.90;;;;;;6180956;23;20013;-78
2023/12/08 05:14:02;;;;;;;22.40;8.63;;;3.00;99.90;;;;;;6178711;23;20017;-77
2023/12/08 05:16:28;;;;;;;19.23;7.53;;;3.00;99.90;;;;;;6179332;23;20067;-77
2023/12/08 05:18:54;;;;;;;14.35;7.13;;;3.00;99.90;;;;;;6180620;23;20033;-76
2023/12/08 05:21:20;;;;;;;19.25;8.13;;;3.10;99.90;;;;;;6179043;23;20005;-78
2023/12/08 05:23:45;;;;;;;18.08;8.35;;;3.10;99.90;;;;;;6178952;23;20466;-77
2023/12/08 05:26:11;;;;;;;16.05;7.55;;;3.00;99.90;;;;;;6177670;23;20009;-76
2023/12/08 05:28:36;;;;;;;18.17;8.25;;;3.10;99.90;;;;;;6180506;23;20020;-77
2023/12/08 05:31:04;;;;;;;17.23;7.70;;;3.00;99.90;;;;;;6178866;23;20013;-77
2023/12/08 05:33:29;;;;;;;20.33;8.55;;;3.00;99.90;;;;;;6179687;23;20378;-79
2023/12/08 05:35:55;;;;;;;18.83;8.05;;;3.10;99.90;;;;;;6181270;23;20066;-78
2023/12/08 05:38:21;;;;;;;17.63;7.88;;;3.10;99.90;;;;;;6177224;23;20009;-77
2023/12/08 05:40:47;;;;;;;16.65;7.90;;;3.00;99.90;;;;;;6180588;23;20009;-78
2023/12/08 05:43:12;;;;;;;21.50;8.43;;;3.10;99.90;;;;;;6177345;23;20009;-77
2023/12/08 05:45:38;;;;;;;21.30;8.32;;;3.10;99.90;;;;;;6178887;23;20005;-77
2023/12/08 05:48:04;;;;;;;19.88;8.38;;;3.10;99.90;;;;;;6178606;23;20753;-77
2023/12/08 05:50:30;;;;;;;17.13;8.30;;;3.10;99.90;;;;;;6179172;23;20346;-78
2023/12/08 05:52:56;;;;;;;23.67;8.57;;;3.10;99.90;;;;;;6180028;23;20084;-75
2023/12/08 05:55:22;;;;;;;16.75;7.85;;;3.10;99.90;;;;;;6177030;23;20012;-76
2023/12/08 05:57:47;;;;;;;19.40;8.02;;;3.10;99.90;;;;;;6178365;23;20009;-78
2023/12/08 06:00:15;;;;;;;17.33;7.60;;;3.10;99.90;;;;;;6177306;23;20016;-77
2023/12/08 06:02:42;;;;;;;18.10;8.55;;;3.20;99.90;;;;;;6179941;23;20065;-77
2023/12/08 06:05:09;;;;;;;17.38;7.85;;;3.20;99.90;;;;;;6178318;23;20035;-76
2023/12/08 06:07:35;;;;;;;19.45;8.35;;;3.20;99.90;;;;;;6180409;23;20143;-78
2023/12/08 06:10:00;;;;;;;16.30;7.35;;;3.20;99.90;;;;;;6178848;23;20474;-77
2023/12/08 06:12:26;;;;;;;20.00;8.90;;;3.20;99.90;;;;;;6177341;23;20355;-77
2023/12/08 06:14:51;;;;;;;23.40;10.05;;;3.20;99.90;;;;;;6178450;23;20121;-77
2023/12/08 06:17:17;;;;;;;22.25;8.38;;;3.20;99.90;;;;;;6177376;23;20020;-77
2023/12/08 06:19:43;;;;;;;21.48;8.65;;;3.30;99.90;;;;;;6178188;23;20009;-77
2023/12/08 06:22:08;;;;;;;18.73;7.93;;;3.20;99.90;;;;;;6178548;23;20107;-76
2023/12/08 06:24:34;;;;;;;17.10;7.43;;;3.20;99.90;;;;;;6179124;23;20013;-76
2023/12/08 06:26:59;;;;;;;19.15;8.93;;;3.30;99.90;;;;;;6178256;23;20005;-76
2023/12/08 06:29:25;;;;;;;17.80;7.68;;;3.30;99.90;;;;;;6177412;23;20017;-77
2023/12/08 06:31:50;;;;;;;20.10;8.35;;;3.30;99.90;;;;;;6180962;23;20072;-79
2023/12/08 06:34:16;;;;;;;19.33;8.68;;;3.30;99.90;;;;;;6179007;23;20009;-78
2023/12/08 06:36:46;;;;;;;20.40;7.78;;;3.30;99.90;;;;;;6180167;23;20009;-77
2023/12/08 06:39:12;;;;;;;19.00;9.00;;;3.30;99.90;;;;;;6177770;23;20375;-77
2023/12/08 06:41:38;;;;;;;20.73;7.97;;;3.30;99.90;;;;;;6178632;23;20065;-76
2023/12/08 06:44:04;;;;;;;19.67;8.45;;;3.30;99.90;;;;;;6179247;23;20001;-77
2023/12/08 06:46:29;;;;;;;19.70;7.72;;;3.30;99.90;;;;;;6178891;23;20455;-77
2023/12/08 06:48:55;;;;;;;19.95;7.82;;;3.30;99.90;;;;;;6178481;23;20017;-77
2023/12/08 06:51:20;;;;;;;19.08;7.85;;;3.40;99.90;;;;;;6179097;23;20009;-77
2023/12/08 06:53:46;;;;;;;19.75;7.30;;;3.40;99.90;;;;;;6177897;23;20023;-74
2023/12/08 06:56:11;;;;;;;21.60;8.18;;;3.40;99.90;;;;;;6176639;23;20800;-77
2023/12/08 06:58:37;;;;;;;20.65;8.70;;;3.40;99.90;;;;;;6179767;23;20100;-77
2023/12/08 07:01:03;;;;;;;17.77;7.85;;;3.40;99.90;;;;;;6181063;23;20059;-76
2023/12/08 07:03:28;;;;;;;22.33;9.43;;;3.40;99.90;;;;;;6179215;23;20063;-77
2023/12/08 07:05:54;;;;;;;21.15;9.23;;;3.40;99.90;;;;;;6180411;23;20013;-79
2023/12/08 07:08:19;;;;;;;21.52;8.85;;;3.40;99.90;;;;;;6176645;23;20056;-79
2023/12/08 07:10:45;;;;;;;18.90;8.73;;;3.40;99.90;;;;;;6179988;23;20015;-78
2023/12/08 07:13:10;;;;;;;23.92;8.50;;;3.50;99.90;;;;;;6178657;23;20060;-77
2023/12/08 07:15:36;;;;;;;22.17;8.27;;;3.50;99.90;;;;;;6178644;23;20017;-78
2023/12/08 07:18:01;;;;;;;23.90;9.23;;;3.50;99.90;;;;;;6178154;23;20080;-77
2023/12/08 07:20:28;;;;;;;24.27;9.38;;;3.50;99.90;;;;;;6180318;23;20024;-78
2023/12/08 07:22:53;;;;;;;20.65;7.85;;;3.60;99.90;;;;;;6178802;23;20016;-77
2023/12/08 07:25:19;;;;;;;19.90;8.02;;;3.50;99.90;;;;;;6180224;23;20355;-78
2023/12/08 07:27:45;;;;;;;21.90;8.63;;;3.50;99.90;;;;;;6180089;23;20419;-76
2023/12/08 07:30:10;;;;;;;20.58;7.32;;;3.50;99.90;;;;;;6182274;23;20477;-78
2023/12/08 07:32:36;;;;;;;22.35;9.63;;;3.50;99.90;;;;;;6182050;23;20013;-77
2023/12/08 07:35:02;;;;;;;26.63;10.70;;;3.50;99.90;;;;;;6182474;23;20015;-77
2023/12/08 07:37:27;;;;;;;19.60;8.40;;;3.50;99.90;;;;;;6178740;23;20009;-76
2023/12/08 07:39:53;;;;;;;29.42;9.70;;;3.50;99.90;;;;;;6180005;23;20012;-78
2023/12/08 07:42:19;;;;;;;23.58;9.45;;;3.60;99.90;;;;;;6180139;23;20039;-77
2023/12/08 07:44:45;;;;;;;22.63;8.60;;;3.60;99.90;;;;;;6181664;23;20024;-76
2023/12/08 07:47:11;;;;;;;20.08;8.27;;;3.60;99.90;;;;;;6182082;23;20058;-78
2023/12/08 07:49:37;;;;;;;21.65;8.85;;;3.60;99.90;;;;;;6178830;23;20036;-78
2023/12/08 07:52:02;;;;;;;22.58;9.20;;;3.60;99.90;;;;;;6182735;23;20081;-78
2023/12/08 07:54:32;;;;;;;26.60;9.90;;;3.60;99.90;;;;;;6181027;23;20025;-78
2023/12/08 07:56:58;;;;;;;23.90;10.70;;;3.70;99.90;;;;;;6180783;23;20096;-76
2023/12/08 07:59:24;;;;;;;22.73;9.40;;;3.60;99.90;;;;;;6178144;23;20009;-76
2023/12/08 08:01:50;;;;;;;26.92;9.35;;;3.70;99.90;;;;;;6180240;23;20009;-78
2023/12/08 08:04:16;;;;;;;30.40;10.60;;;3.70;99.90;;;;;;6180746;23;20009;-76
2023/12/08 08:06:42;;;;;;;28.95;10.05;;;3.70;99.90;;;;;;6179416;23;20032;-77
2023/12/08 08:09:07;;;;;;;33.08;11.38;;;3.70;99.90;;;;;;6181256;23;20080;-77
2023/12/08 08:11:33;;;;;;;31.73;10.52;;;3.70;99.90;;;;;;6179329;23;20009;-77
2023/12/08 08:13:58;;;;;;;28.95;11.38;;;3.70;99.90;;;;;;6182181;23;20210;-77
2023/12/08 08:16:24;;;;;;;27.70;10.55;;;3.70;99.90;;;;;;6177691;23;20012;-77
2023/12/08 08:18:50;;;;;;;29.40;9.57;;;3.70;99.90;;;;;;6182212;23;20439;-78
2023/12/08 08:21:15;;;;;;;42.25;11.55;;;3.70;99.90;;;;;;6179240;23;20005;-78
2023/12/08 08:23:41;;;;;;;35.05;11.77;;;3.70;99.90;;;;;;6181092;23;20041;-77
2023/12/08 08:26:07;;;;;;;28.98;10.32;;;3.80;99.90;;;;;;6180077;23;20013;-77
2023/12/08 08:28:32;;;;;;;33.53;11.02;;;3.80;99.90;;;;;;6178090;23;20013;-78
2023/12/08 08:30:58;;;;;;;38.08;10.60;;;3.90;99.90;;;;;;6178393;23;20013;-77
2023/12/08 08:33:23;;;;;;;33.15;11.32;;;3.80;99.90;;;;;;6179963;23;20062;-76
2023/12/08 08:35:49;;;;;;;31.00;10.73;;;3.90;99.90;;;;;;6180385;23;20017;-77
2023/12/08 08:38:15;;;;;;;39.63;12.35;;;3.90;99.90;;;;;;6177303;23;20067;-77
2023/12/08 08:40:41;;;;;;;35.50;10.50;;;3.90;99.90;;;;;;6178440;23;20029;-77
2023/12/08 08:43:06;;;;;;;40.17;11.43;;;4.00;99.90;;;;;;6180600;23;20009;-78
2023/12/08 08:45:32;;;;;;;39.33;13.07;;;4.00;99.90;;;;;;6178069;23;20043;-77
2023/12/08 08:47:58;;;;;;;28.33;10.65;;;4.00;99.90;;;;;;6179247;23;20033;-78
2023/12/08 08:50:23;;;;;;;41.33;11.50;;;4.00;99.90;;;;;;6177441;23;20594;-76
2023/12/08 08:52:49;;;;;;;42.70;12.55;;;4.00;99.90;;;;;;6179403;23;20351;-79
2023/12/08 08:55:15;;;;;;;34.28;9.48;;;4.10;99.90;;;;;;6179436;23;20020;-77
2023/12/08 08:57:40;;;;;;;31.27;11.32;;;4.10;99.90;;;;;;6180960;23;20017;-77
2023/12/08 09:00:11;;;;;;;39.08;12.68;;;4.10;99.90;;;;;;6181249;23;20028;-78
2023/12/08 09:02:38;;;;;;;30.48;10.18;;;4.10;99.90;;;;;;6178220;23;20005;-77
2023/12/08 09:05:05;;;;;;;32.75;10.23;;;4.10;99.90;;;;;;6179211;23;20024;-78
2023/12/08 09:07:30;;;;;;;35.33;11.38;;;4.20;99.90;;;;;;6180427;23;20012;-77
2023/12/08 09:09:57;;;;;;;41.88;13.70;;;4.20;99.90;;;;;;6177530;23;20009;-77
2023/12/08 09:12:22;;;;;;;37.65;13.20;;;4.20;99.90;;;;;;6179392;23;20027;-79
2023/12/08 09:14:48;;;;;;;35.92;10.82;;;4.20;99.90;;;;;;6180875;23;20011;-77
2023/12/08 09:17:14;;;;;;;37.30;11.80;;;4.30;99.90;;;;;;6179275;23;20007;-77
2023/12/08 09:19:39;;;;;;;33.97;11.18;;;4.30;99.90;;;;;;6180915;23;20009;-77
2023/12/08 09:22:05;;;;;;;38.75;12.40;;;4.30;99.90;;;;;;6178524;23;20343;-78
2023/12/08 09:24:31;;;;;;;38.28;11.90;;;4.30;99.90;;;;;;6177496;23;20080;-78
2023/12/08 09:26:56;;;;;;;30.70;11.75;;;4.40;99.90;;;;;;6172558;23;20056;-76
2023/12/08 09:29:22;;;;;;;38.53;12.65;;;4.40;99.90;;;;;;6174501;23;20008;-78
2023/12/08 09:31:48;;;;;;;33.58;12.18;;;4.40;99.90;;;;;;6175002;23;20424;-77
2023/12/08 09:34:13;;;;;;;52.13;14.02;;;4.40;99.90;;;;;;6176561;23;20048;-78
2023/12/08 09:36:39;;;;;;;46.53;12.63;;;4.40;99.90;;;;;;6176816;23;20066;-77
2023/12/08 09:39:05;;;;;;;42.20;12.77;;;4.40;99.90;;;;;;6177554;23;20020;-75
2023/12/08 09:41:31;;;;;;;37.47;10.57;;;4.50;99.90;;;;;;6176683;23;20083;-76
2023/12/08 09:44:05;;;;;;;35.08;12.38;;;4.50;99.90;;;;;;6179027;23;20008;-77
2023/12/08 09:46:34;;;;;;;39.10;13.63;;;4.50;99.90;;;;;;6177026;23;20021;-77
2023/12/08 09:49:03;;;;;;;36.72;11.68;;;4.50;99.90;;;;;;6178154;23;20049;-77
2023/12/08 09:51:29;;;;;;;47.35;13.05;;;4.50;99.90;;;;;;6179038;23;20063;-75
2023/12/08 09:53:57;;;;;;;40.17;12.50;;;4.50;99.90;;;;;;6179929;23;20013;-79
2023/12/08 09:56:25;;;;;;;43.17;12.90;;;4.60;99.90;;;;;;6179249;23;20082;-78
2023/12/08 09:58:51;;;;;;;42.22;12.68;;;4.60;99.90;;;;;;6177586;23;20096;-77
2023/12/08 10:01:17;;;;;;;42.55;13.38;;;4.60;99.90;;;;;;6176416;23;20013;-77
2023/12/08 10:03:44;;;;;;;50.47;11.50;;;4.70;99.90;;;;;;6179360;23;20346;-75
2023/12/08 10:06:10;;;;;;;46.10;13.90;;;4.70;99.90;;;;;;6179102;23;20064;-78
2023/12/08 10:08:36;;;;;;;55.83;12.80;;;4.80;99.90;;;;;;6177353;23;20040;-78
2023/12/08 10:11:02;;;;;;;32.28;11.20;;;4.80;99.90;;;;;;6180073;23;20047;-78
2023/12/08 10:13:28;;;;;;;43.28;13.10;;;4.80;99.90;;;;;;6179077;23;20040;-79
2023/12/08 10:15:55;;;;;;;49.67;13.77;;;4.90;99.90;;;;;;6180921;23;20431;-80
2023/12/08 10:18:25;;;;;;;47.97;15.48;;;4.90;99.90;;;;;;6179426;23;20027;-77
2023/12/08 10:20:51;;;;;;;39.17;11.98;;;4.90;99.90;;;;;;6181041;23;20040;-77
2023/12/08 10:23:23;;;;;;;56.15;13.30;;;4.90;99.90;;;;;;6178353;23;20344;-79
2023/12/08 10:25:49;;;;;;;42.25;12.02;;;5.00;99.90;;;;;;6179536;23;20040;-77
2023/12/08 10:28:15;;;;;;;48.25;13.45;;;5.00;99.90;;;;;;6177817;23;20013;-78
2023/12/08 10:30:51;;;;;;;45.10;12.13;;;5.00;99.90;;;;;;6178953;23;20021;-78
2023/12/08 10:33:19;;;;;;;38.15;12.15;;;5.00;99.90;;;;;;6177489;23;20502;-78
2023/12/08 10:35:45;;;;;;;49.28;12.60;;;5.10;99.90;;;;;;6178726;23;20016;-79
2023/12/08 10:38:12;;;;;;;51.28;14.63;;;5.10;99.90;;;;;;6178376;23;20440;-79
2023/12/08 10:40:44;;;;;;;58.13;13.10;;;5.20;99.90;;;;;;6177728;23;20012;-76
2023/12/08 10:43:10;;;;;;;63.03;14.13;;;5.10;99.90;;;;;;6180061;23;20035;-79
2023/12/08 10:45:36;;;;;;;80.50;15.70;;;5.20;99.90;;;;;;6178028;23;20604;-77
2023/12/08 10:48:04;;;;;;;77.13;15.88;;;5.30;99.90;;;;;;6178626;23;20013;-78
2023/12/08 10:50:30;;;;;;;50.42;12.73;;;5.30;99.90;;;;;;6176432;23;20021;-79
2023/12/08 10:52:57;;;;;;;52.83;13.27;;;5.40;99.90;;;;;;6178163;23;20455;-78
2023/12/08 10:55:22;;;;;;;62.15;13.82;;;5.40;99.90;;;;;;6175429;23;20009;-78
2023/12/08 10:57:56;;;;;;;56.55;16.02;;;5.50;99.90;;;;;;6179772;23;20016;-78
2023/12/08 11:00:25;;;;;;;52.55;12.80;;;5.50;99.90;;;;;;6176675;23;20017;-77
2023/12/08 11:02:51;;;;;;;65.40;13.65;;;5.60;99.90;;;;;;6180433;23;20009;-78
2023/12/08 11:05:29;;;;;;;50.60;12.20;;;5.60;99.90;;;;;;6178216;23;20081;-77
2023/12/08 11:07:58;;;;;;;48.15;13.38;;;5.70;99.90;;;;;;6179592;23;20016;-77
2023/12/08 11:10:27;;;;;;;57.30;14.38;;;5.70;99.90;;;;;;6177273;23;20021;-77
2023/12/08 11:12:59;;;;;;;61.05;14.43;;;5.80;99.90;;;;;;6178390;23;20017;-78
2023/12/08 11:15:30;;;;;;;57.15;14.15;;;5.80;99.90;;;;;;6176526;23;20016;-76
2023/12/08 11:18:16;;;;;;;49.58;13.77;;;5.80;99.90;;;;;;6178629;23;20013;-76
2023/12/08 11:20:43;;;;;;;68.55;15.25;;;5.90;99.90;;;;;;6176793;23;20012;-79
2023/12/08 11:23:10;;;;;;;57.13;14.25;;;6.00;99.90;;;;;;6178317;23;20005;-77
2023/12/08 11:25:46;;;;;;;66.47;13.88;;;6.00;99.90;;;;;;6177192;23;20430;-77
2023/12/08 11:28:45;;;;;;;47.63;13.45;;;6.10;99.90;;;;;;6177875;23;20455;-77
2023/12/08 11:31:24;;;;;;;63.97;13.35;;;6.10;99.90;;;;;;6122427;23;20024;-77
2023/12/08 11:33:58;;;;;;;57.75;14.45;;;6.20;99.90;;;;;;6180346;23;20044;-78
2023/12/08 11:36:28;;;;;;;72.13;15.07;;;6.20;99.90;;;;;;6177977;23;20013;-77
2023/12/08 11:38:55;;;;;;;57.30;16.05;;;6.30;99.90;;;;;;6179292;23;20008;-77
2023/12/08 11:41:22;;;;;;;61.70;14.43;;;6.30;99.90;;;;;;6175897;23;20005;-77
2023/12/08 11:43:48;;;;;;;53.35;15.25;;;6.40;99.90;;;;;;6176861;23;20798;-77
2023/12/08 11:46:15;;;;;;;68.82;16.55;;;6.40;99.90;;;;;;6176110;23;20013;-77
2023/12/08 11:48:47;;;;;;;101.80;19.65;;;6.40;99.90;;;;;;6179948;23;20363;-77
2023/12/08 11:51:13;;;;;;;61.15;15.18;;;6.40;99.90;;;;;;6177980;23;20079;-77
2023/12/08 11:53:53;;;;;;;64.88;16.90;;;6.50;99.90;;;;;;6179447;23;20365;-77
2023/12/08 11:56:42;;;;;;;56.55;12.85;;;6.50;99.90;;;;;;6173642;23;20021;-79
2023/12/08 11:59:07;;;;;;;54.92;13.88;;;6.60;99.90;;;;;;6175082;23;20084;-78
2023/12/08 12:01:37;;;;;;;80.82;14.60;;;6.60;99.90;;;;;;6174993;23;20041;-77
2023/12/08 12:04:03;;;;;;;65.13;13.10;;;6.60;99.90;;;;;;6176924;23;20013;-78
2023/12/08 12:06:30;;;;;;;68.72;16.05;;;6.70;99.90;;;;;;6174637;23;20097;-78
2023/12/08 12:08:59;;;;;;;72.20;14.50;;;6.70;99.90;;;;;;6174992;23;20455;-76
2023/12/08 12:11:27;;;;;;;55.72;13.05;;;6.70;99.90;;;;;;6175126;23;20012;-78
2023/12/08 12:13:58;;;;;;;43.38;12.05;;;6.80;99.90;;;;;;6176937;23;20090;-76
2023/12/08 12:16:24;;;;;;;76.45;13.90;;;6.90;99.90;;;;;;6177347;23;20469;-78
2023/12/08 12:18:51;;;;;;;50.42;13.18;;;6.90;99.90;;;;;;6179603;23;20028;-77
2023/12/08 12:21:18;;;;;;;61.55;12.40;;;6.90;99.90;;;;;;6176664;23;20008;-78
2023/12/08 12:23:46;;;;;;;43.80;10.07;;;7.00;99.90;;;;;;6180431;23;20509;-77
2023/12/08 12:26:13;;;;;;;48.65;11.10;;;7.00;99.90;;;;;;6181343;23;20426;-78
2023/12/08 12:28:39;;;;;;;62.55;13.50;;;7.00;99.90;;;;;;6181332;23;20043;-78
2023/12/08 12:31:04;;;;;;;53.17;12.05;;;7.10;99.90;;;;;;6181024;23;20009;-78
2023/12/08 12:33:30;;;;;;;31.45;9.48;;;7.10;99.90;;;;;;6177438;23;20447;-77
2023/12/08 12:35:56;;;;;;;46.65;11.40;;;7.10;99.90;;;;;;6178779;23;20024;-77
2023/12/08 12:38:21;;;;;;;40.28;11.43;;;7.10;99.90;;;;;;6179523;23;20518;-79
2023/12/08 12:40:47;;;;;;;47.25;11.38;;;7.10;99.90;;;;;;6178066;23;19997;-80